createdAt,value
2017-05-25T00:00:03.029Z,0
2017-05-25T00:05:02.875Z,0
2017-05-25T00:10:02.559Z,0
2017-05-25T00:15:03.266Z,0
2017-05-25T00:20:03.078Z,0
2017-05-25T00:25:02.762Z,0
2017-05-25T00:30:03.399Z,0
2017-05-25T00:35:03.088Z,0
2017-05-25T00:40:02.679Z,0
2017-05-25T00:45:03.321Z,0
2017-05-25T00:50:02.913Z,0
2017-05-25T00:55:02.603Z,0
2017-05-25T01:00:03.299Z,0
2017-05-25T01:05:03.080Z,0
2017-05-25T01:10:02.792Z,0
2017-05-25T01:15:03.361Z,0
2017-05-25T01:20:03.101Z,0
2017-05-25T01:25:02.786Z,0
2017-05-25T01:30:02.470Z,0
2017-05-25T01:35:03.038Z,0
2017-05-25T01:40:02.857Z,0
2017-05-25T01:45:02.606Z,0
2017-05-25T01:50:03.286Z,0
2017-05-25T01:55:03.033Z,0
2017-05-25T02:00:02.714Z,0
2017-05-25T02:05:02.483Z,0
2017-05-25T02:10:03.385Z,0
2017-05-25T02:15:02.915Z,0
2017-05-25T02:20:02.664Z,0
2017-05-25T02:25:03.407Z,0
2017-05-25T02:30:03.107Z,0
2017-05-25T02:35:02.805Z,0
2017-05-25T02:40:02.582Z,0
2017-05-25T02:45:03.113Z,1
2017-05-25T02:50:02.658Z,2
2017-05-25T02:55:02.480Z,4
2017-05-25T03:00:03.300Z,9
2017-05-25T03:05:02.958Z,17
2017-05-25T03:10:02.670Z,26
2017-05-25T03:15:03.258Z,35
2017-05-25T03:20:03.010Z,46
2017-05-25T03:25:02.701Z,59
2017-05-25T03:30:03.432Z,69
2017-05-25T03:35:03.205Z,101
2017-05-25T03:40:03.015Z,207
2017-05-25T03:45:02.779Z,295
2017-05-25T03:50:02.542Z,377
2017-05-25T03:55:03.283Z,408
2017-05-25T04:00:03.092Z,452
2017-05-25T04:05:02.848Z,464
2017-05-25T04:10:02.715Z,508
2017-05-25T04:15:02.496Z,639
2017-05-25T04:20:03.078Z,785
2017-05-25T04:25:02.707Z,903
2017-05-25T04:30:02.932Z,1000
2017-05-25T04:35:02.528Z,1000
2017-05-25T04:40:03.308Z,1000
2017-05-25T04:45:02.871Z,1000
2017-05-25T04:50:02.521Z,1000
2017-05-25T04:55:03.265Z,1000
2017-05-25T05:00:02.885Z,1000
2017-05-25T05:05:03.430Z,2000
2017-05-25T05:10:03.093Z,1000
2017-05-25T05:15:02.836Z,2000
2017-05-25T05:20:02.639Z,2000
2017-05-25T05:25:03.331Z,2000
2017-05-25T05:30:02.902Z,2000
2017-05-25T05:35:02.618Z,3000
2017-05-25T05:40:03.273Z,3000
2017-05-25T05:45:02.933Z,3000
2017-05-25T05:50:02.517Z,5000
2017-05-25T05:55:03.131Z,5000
2017-05-25T06:00:02.756Z,8000
2017-05-25T06:05:02.585Z,7000
2017-05-25T06:10:03.329Z,7000
2017-05-25T06:15:03.033Z,7000
2017-05-25T06:20:02.869Z,6000
2017-05-25T06:25:02.575Z,5000
2017-05-25T06:30:03.346Z,8000
2017-05-25T06:35:03.003Z,5000
2017-05-25T06:40:02.697Z,5000
2017-05-25T06:45:03.493Z,4000
2017-05-25T06:50:03.095Z,4000
2017-05-25T06:55:02.799Z,4000
2017-05-25T07:00:02.621Z,4000
2017-05-25T07:05:03.273Z,3000
2017-05-25T07:10:03.164Z,3000
2017-05-25T07:15:02.822Z,4000
2017-05-25T07:20:02.485Z,4000
2017-05-25T07:25:03.053Z,4000
2017-05-25T07:30:02.812Z,4000
2017-05-25T07:35:02.571Z,5000
2017-05-25T07:40:03.339Z,5000
2017-05-25T07:45:02.955Z,5000
2017-05-25T07:50:02.522Z,17000
2017-05-25T07:55:03.121Z,36000
2017-05-25T08:00:02.767Z,36000
2017-05-25T08:05:03.423Z,40000
2017-05-25T08:10:03.109Z,45000
2017-05-25T08:15:02.758Z,41000
2017-05-25T08:20:03.436Z,47000
2017-05-25T08:25:03.007Z,47000
2017-05-25T08:30:02.632Z,51000
2017-05-25T08:35:03.288Z,50000
2017-05-25T08:40:03.029Z,52000
2017-05-25T08:45:02.824Z,53000
2017-05-25T08:50:02.567Z,54000
2017-05-25T08:55:03.198Z,53000
2017-05-25T09:00:02.916Z,54000
2017-05-25T09:05:02.586Z,54000
2017-05-25T09:10:03.323Z,54000
2017-05-25T09:15:02.975Z,54000
2017-05-25T09:20:02.736Z,53000
2017-05-25T09:25:03.450Z,54000
2017-05-25T09:30:03.031Z,55000
2017-05-25T09:35:02.643Z,55000
2017-05-25T09:40:03.402Z,55000
2017-05-25T09:45:03.020Z,55000
2017-05-25T09:50:02.640Z,54000
2017-05-25T09:55:03.421Z,53000
2017-05-25T10:00:03.008Z,52000
2017-05-25T10:05:02.663Z,53000
2017-05-25T10:10:02.498Z,54000
2017-05-25T10:15:03.136Z,54000
2017-05-25T10:20:02.851Z,53000
2017-05-25T10:25:02.537Z,54000
2017-05-25T10:30:03.204Z,54000
2017-05-25T10:35:02.993Z,53000
2017-05-25T10:40:02.641Z,53000
2017-05-25T10:45:03.482Z,52000
2017-05-25T10:50:03.250Z,53000
2017-05-25T10:55:02.935Z,53000
2017-05-25T11:00:02.708Z,52000
2017-05-25T11:05:03.371Z,52000
2017-05-25T11:10:02.988Z,52000
2017-05-25T11:15:02.719Z,52000
2017-05-25T11:20:03.441Z,51000
2017-05-25T11:25:03.097Z,52000
2017-05-25T11:30:02.999Z,51000
2017-05-25T11:35:02.664Z,51000
2017-05-25T11:40:03.260Z,51000
2017-05-25T11:45:03.023Z,51000
2017-05-25T11:50:02.764Z,50000
2017-05-25T11:55:03.397Z,50000
2017-05-25T12:00:03.363Z,50000
2017-05-25T12:05:03.203Z,49000
2017-05-25T12:10:03.001Z,50000
2017-05-25T12:15:02.901Z,49000
2017-05-25T12:20:02.677Z,48000
2017-05-25T12:25:02.624Z,47000
2017-05-25T12:30:03.426Z,47000
2017-05-25T12:35:03.393Z,46000
2017-05-25T12:40:02.473Z,45000
2017-05-25T12:45:03.409Z,45000
2017-05-25T12:50:02.891Z,44000
2017-05-25T12:55:03.410Z,43000
2017-05-25T13:00:02.982Z,42000
2017-05-25T13:05:03.031Z,42000
2017-05-25T13:10:02.852Z,41000
2017-05-25T13:15:03.345Z,39000
2017-05-25T13:20:02.939Z,39000
2017-05-25T13:25:03.288Z,39000
2017-05-25T13:30:02.886Z,38000
2017-05-25T13:35:03.066Z,36000
2017-05-25T13:40:03.322Z,36000
2017-05-25T13:45:02.479Z,34000
2017-05-25T13:50:02.659Z,34000
2017-05-25T13:55:02.565Z,33000
2017-05-25T14:00:02.552Z,32000
2017-05-25T14:05:03.325Z,32000
2017-05-25T14:10:03.252Z,31000
2017-05-25T14:15:03.144Z,31000
2017-05-25T14:20:03.168Z,30000
2017-05-25T14:25:02.973Z,29000
2017-05-25T14:30:03.041Z,30000
2017-05-25T14:35:02.880Z,30000
2017-05-25T14:40:02.821Z,28000
2017-05-25T14:45:02.498Z,28000
2017-05-25T14:50:03.131Z,27000
2017-05-25T14:55:02.837Z,27000
2017-05-25T15:00:02.682Z,26000
2017-05-25T15:05:02.494Z,26000
2017-05-25T15:10:03.395Z,25000
2017-05-25T15:15:03.023Z,25000
2017-05-25T15:20:02.620Z,5000
2017-05-25T15:25:03.390Z,26000
2017-05-25T15:30:03.126Z,12000
2017-05-25T15:35:02.982Z,24000
2017-05-25T15:40:02.922Z,22000
2017-05-25T15:45:02.636Z,21000
2017-05-25T15:50:03.384Z,23000
2017-05-25T15:55:03.209Z,23000
2017-05-25T16:00:02.927Z,24000
2017-05-25T16:05:02.736Z,23000
2017-05-25T16:10:02.646Z,21000
2017-05-25T16:15:03.196Z,9000
2017-05-25T16:20:02.766Z,4000
2017-05-25T16:25:02.543Z,3000
2017-05-25T16:30:03.221Z,3000
2017-05-25T16:35:02.952Z,3000
2017-05-25T16:40:02.675Z,16000
2017-05-25T16:45:02.518Z,2000
2017-05-25T16:50:03.251Z,3000
2017-05-25T16:55:03.203Z,15000
2017-05-25T17:00:03.168Z,13000
2017-05-25T17:05:02.798Z,13000
2017-05-25T17:10:02.583Z,13000
2017-05-25T17:15:03.157Z,12000
2017-05-25T17:20:02.894Z,12000
2017-05-25T17:25:02.680Z,10000
2017-05-25T17:30:03.331Z,10000
2017-05-25T17:35:02.898Z,9000
2017-05-25T17:40:02.760Z,9000
2017-05-25T17:45:03.391Z,8000
2017-05-25T17:50:03.069Z,8000
2017-05-25T17:55:02.633Z,7000
2017-05-25T18:00:03.250Z,6000
2017-05-25T18:05:03.065Z,6000
2017-05-25T18:10:02.875Z,5000
2017-05-25T18:15:02.743Z,5000
2017-05-25T18:20:02.515Z,5000
2017-05-25T18:25:03.224Z,4000
2017-05-25T18:30:02.947Z,3000
2017-05-25T18:35:02.514Z,3000
2017-05-25T18:40:03.355Z,3000
2017-05-25T18:45:03.136Z,2000
2017-05-25T18:50:02.772Z,1000
2017-05-25T18:55:02.497Z,905
2017-05-25T19:00:03.078Z,769
2017-05-25T19:05:02.795Z,655
2017-05-25T19:10:02.645Z,585
2017-05-25T19:15:02.511Z,485
2017-05-25T19:20:03.186Z,411
2017-05-25T19:25:02.993Z,337
2017-05-25T19:30:02.722Z,268
2017-05-25T19:35:03.438Z,145
2017-05-25T19:40:03.204Z,82
2017-05-25T19:45:02.793Z,65
2017-05-25T19:50:02.461Z,54
2017-05-25T19:55:03.201Z,42
2017-05-25T20:00:02.874Z,30
2017-05-25T20:05:02.518Z,14
2017-05-25T20:10:03.120Z,7
2017-05-25T20:15:03.028Z,3
2017-05-25T20:20:02.824Z,2
2017-05-25T20:25:02.468Z,1
2017-05-25T20:30:03.287Z,0
2017-05-25T20:35:02.936Z,0
2017-05-25T20:40:02.609Z,0
2017-05-25T20:45:03.279Z,0
2017-05-25T20:50:02.969Z,0
2017-05-25T20:55:02.721Z,0
2017-05-25T21:00:03.346Z,0
2017-05-25T21:05:02.976Z,0
2017-05-25T21:10:02.857Z,0
2017-05-25T21:15:02.611Z,0
2017-05-25T21:20:03.424Z,0
2017-05-25T21:25:03.196Z,0
2017-05-25T21:30:03.169Z,0
2017-05-25T21:35:03.002Z,0
2017-05-25T21:40:02.720Z,0
2017-05-25T21:45:03.353Z,0
2017-05-25T21:50:02.948Z,0
2017-05-25T21:55:02.553Z,0
2017-05-25T22:00:03.146Z,0
2017-05-25T22:05:02.881Z,0
2017-05-25T22:10:02.585Z,0
2017-05-25T22:15:03.338Z,0
2017-05-25T22:20:10.101Z,0
2017-05-25T22:25:02.816Z,0
2017-05-25T22:30:02.648Z,0
2017-05-25T22:35:03.294Z,0
2017-05-25T22:40:03.124Z,0
2017-05-25T22:45:02.882Z,0
2017-05-25T22:50:02.556Z,0
2017-05-25T22:55:03.148Z,0
2017-05-25T23:00:02.778Z,0
2017-05-25T23:05:02.895Z,0
2017-05-25T23:10:02.741Z,0
2017-05-25T23:15:02.491Z,0
2017-05-25T23:20:03.150Z,0
2017-05-25T23:25:02.987Z,0
2017-05-25T23:30:02.683Z,0
2017-05-25T23:35:03.354Z,0
2017-05-25T23:40:03.123Z,0
2017-05-25T23:45:02.876Z,0
2017-05-25T23:50:02.607Z,0
2017-05-25T23:55:03.356Z,0
